Time;durP1;ratioP1;P1;durP2;ratioP2;P2;SDS_P1;SDS_P2;PMS_P1;PMS_P2;Temp;Humidity;BMP_temperature;BMP_pressure;BME280_temperature;BME280_humidity;BME280_pressure;Samples;Min_cycle;Max_cycle;Signal;HPM_P1;HPM_P2
2022/05/28 00:01:37;;;;;;;8.13;2.33;;;;;;;-149.78;100.00;50244.59;5134688;27;20035;-69
2022/05/28 00:04:07;;;;;;;9.20;1.73;;;;;;;-149.78;100.00;50252.41;5134702;27;20039;-69
2022/05/28 00:06:34;;;;;;;9.57;1.60;;;;;;;-149.78;100.00;50266.09;5116463;27;20118;-69
2022/05/28 00:09:01;;;;;;;7.70;1.88;;;;;;;-149.78;100.00;50225.03;5116372;27;20780;-69
2022/05/28 00:11:33;;;;;;;6.72;1.35;;;;;;;-149.78;100.00;50244.59;5134899;27;20493;-69
2022/05/28 00:13:59;;;;;;;5.22;1.42;;;;;;;-149.78;100.00;50209.38;5134725;27;20035;-69
2022/05/28 00:16:25;;;;;;;8.00;1.52;;;;;;;-149.78;100.00;50240.66;5134742;27;20385;-69
2022/05/28 00:18:54;;;;;;;4.30;1.92;;;;;;;-149.78;100.00;50217.19;5134570;27;20038;-69
2022/05/28 00:21:22;;;;;;;5.20;1.45;;;;;;;-149.78;100.00;50236.75;5095395;28;20471;-69
2022/05/28 00:23:48;;;;;;;10.25;1.75;;;;;;;-149.78;100.00;50240.66;5095825;28;20485;-69
2022/05/28 00:26:15;;;;;;;8.50;1.38;;;;;;;-149.78;100.00;50252.41;5095874;28;20039;-69
2022/05/28 00:28:41;;;;;;;5.72;1.60;;;;;;;-149.78;100.00;50230.88;5126903;27;20038;-69
2022/05/28 00:31:08;;;;;;;8.88;1.40;;;;;;;-149.78;100.00;50217.19;5134253;27;20053;-69
2022/05/28 00:33:34;;;;;;;11.82;1.70;;;;;;;-149.78;100.00;50264.13;5134428;27;20030;-69
2022/05/28 00:36:00;;;;;;;3.53;1.10;;;;;;;-149.78;100.00;50240.66;5134327;27;20031;-69
2022/05/28 00:38:27;;;;;;;12.80;1.65;;;;;;;-149.78;100.00;50215.25;5134433;27;20065;-68
2022/05/28 00:40:55;;;;;;;9.82;1.80;;;;;;;-149.78;100.00;50225.03;5134168;27;20043;-69
2022/05/28 00:43:21;;;;;;;2.53;1.40;;;;;;;-149.78;100.00;50236.75;5134322;27;20061;-69
2022/05/28 00:45:50;;;;;;;6.07;1.55;;;;;;;-149.78;100.00;50221.13;5099231;28;20055;-69
2022/05/28 00:48:23;;;;;;;8.45;1.50;;;;;;;-149.78;100.00;50221.13;5134171;27;20030;-69
2022/05/28 00:50:49;;;;;;;5.07;1.52;;;;;;;-149.78;100.00;50209.38;5133993;27;20023;-69
2022/05/28 00:53:15;;;;;;;10.32;1.58;;;;;;;-149.78;100.00;50250.44;5134185;27;20487;-69
2022/05/28 00:55:41;;;;;;;5.72;1.70;;;;;;;-149.78;100.00;50228.94;5116088;28;20041;-69
2022/05/28 00:58:09;;;;;;;4.78;1.48;;;;;;;-149.78;100.00;50217.19;5134078;28;20056;-69
2022/05/28 01:00:37;;;;;;;7.30;1.75;;;;;;;-149.78;100.00;50252.41;5134068;28;20035;-69
2022/05/28 01:03:14;;;;;;;11.02;1.90;;;;;;;-149.78;100.00;50238.72;5115766;28;20118;-68
2022/05/28 01:05:46;;;;;;;5.68;1.42;;;;;;;-149.78;100.00;50209.38;5134042;28;20479;-69
2022/05/28 01:08:25;;;;;;;8.48;1.60;;;;;;;-149.78;100.00;50217.19;5106312;28;20035;-69
2022/05/28 01:11:02;;;;;;;7.55;1.63;;;;;;;-149.78;100.00;50240.66;5129913;28;20051;-68
2022/05/28 01:13:52;;;;;;;12.35;1.88;;;;;;;-149.78;100.00;50240.66;5125398;28;20498;-69
2022/05/28 01:16:22;;;;;;;9.63;1.60;;;;;;;-149.78;100.00;50221.13;5116636;28;20076;-69
2022/05/28 01:18:51;;;;;;;9.05;1.60;;;;;;;-149.78;100.00;50205.47;5097505;28;20027;-69
2022/05/28 01:21:24;;;;;;;8.20;1.60;;;;;;;-149.78;100.00;50217.19;5117711;28;20067;-69
2022/05/28 01:23:57;;;;;;;9.15;1.48;;;;;;;-149.78;100.00;50264.13;5098462;28;20394;-69
2022/05/28 01:26:54;;;;;;;6.85;1.20;;;;;;;-149.78;100.00;50246.53;5126765;28;20028;-69
2022/05/28 01:29:23;;;;;;;7.10;1.60;;;;;;;-149.78;100.00;50213.28;5094448;28;20081;-69
2022/05/28 01:31:50;;;;;;;5.95;1.27;;;;;;;-149.78;100.00;50203.50;5095325;28;20383;-69
2022/05/28 01:34:18;;;;;;;8.25;1.50;;;;;;;-149.78;100.00;50240.66;5084577;28;20045;-69
2022/05/28 01:36:45;;;;;;;11.20;2.22;;;;;;;-149.78;100.00;50236.75;5116210;28;20563;-69
2022/05/28 01:39:12;;;;;;;4.03;1.20;;;;;;;-149.78;100.00;50254.34;5122840;28;20027;-69
2022/05/28 01:41:39;;;;;;;10.52;1.70;;;;;;;-149.78;100.00;50225.03;5112296;28;20027;-69
2022/05/28 01:44:09;;;;;;;8.23;1.55;;;;;;;-149.78;100.00;50252.41;5130011;28;20084;-69
2022/05/28 01:46:37;;;;;;;5.70;2.03;;;;;;;-149.78;100.00;50250.44;5120219;28;20483;-69
2022/05/28 01:49:05;;;;;;;6.05;1.40;;;;;;;-149.78;100.00;50228.94;5124498;28;20114;-69
2022/05/28 01:51:37;;;;;;;8.40;3.15;;;;;;;-149.78;100.00;50248.50;5113150;28;20332;-69
2022/05/28 01:54:07;;;;;;;10.30;1.48;;;;;;;-149.78;100.00;50236.75;5114904;28;20424;-69
2022/05/28 01:56:33;;;;;;;5.60;1.50;;;;;;;-149.78;100.00;50230.88;5122826;28;20467;-69
2022/05/28 01:59:00;;;;;;;12.80;2.17;;;;;;;-149.78;100.00;50266.09;5097210;28;20027;-69
2022/05/28 02:01:26;;;;;;;6.78;1.35;;;;;;;-149.78;100.00;50232.84;5101576;28;20093;-69
2022/05/28 02:03:56;;;;;;;8.85;1.38;;;;;;;-149.78;100.00;50228.94;5121095;27;20051;-69
2022/05/28 02:06:22;;;;;;;5.13;1.58;;;;;;;-149.78;100.00;50225.03;5116341;28;20096;-69
2022/05/28 02:08:49;;;;;;;5.75;1.58;;;;;;;-149.78;100.00;50232.84;5116006;28;20031;-69
2022/05/28 02:11:19;;;;;;;7.90;1.92;;;;;;;-149.78;100.00;50248.50;5101605;27;20474;-69
2022/05/28 02:14:09;;;;;;;10.18;1.50;;;;;;;-149.78;100.00;50256.31;5105946;28;20036;-70
2022/05/28 02:16:48;;;;;;;4.43;1.20;;;;;;;-149.78;100.00;50244.59;5130641;27;20358;-68
2022/05/28 02:19:54;;;;;;;6.70;1.20;;;;;;;-149.78;100.00;50217.19;5117343;27;20478;-69
2022/05/28 02:22:46;;;;;;;3.03;1.27;;;;;;;-149.78;100.00;50236.75;5115969;28;20028;-69
2022/05/28 02:25:19;;;;;;;7.33;1.63;;;;;;;-149.78;100.00;50271.97;5130018;27;20046;-69
2022/05/28 02:27:47;;;;;;;7.45;1.27;;;;;;;-149.78;100.00;50248.50;5103088;28;20031;-69
2022/05/28 02:30:14;;;;;;;4.15;1.20;;;;;;;-149.78;100.00;50242.63;5126548;27;20032;-69
2022/05/28 02:32:40;;;;;;;10.43;1.83;;;;;;;-149.78;100.00;50248.50;5116003;28;20032;-68
2022/05/28 02:35:07;;;;;;;4.45;1.20;;;;;;;-149.78;100.00;50252.41;5117426;27;20387;-69
2022/05/28 02:37:33;;;;;;;5.28;1.70;;;;;;;-149.78;100.00;50262.19;5124695;27;20024;-69
2022/05/28 02:39:59;;;;;;;8.90;1.20;;;;;;;-149.78;100.00;50228.94;5116718;27;20034;-69
2022/05/28 02:42:24;;;;;;;3.63;1.20;;;;;;;-149.78;100.00;50232.84;5116727;27;20127;-69
2022/05/28 02:44:50;;;;;;;4.32;1.20;;;;;;;-149.78;100.00;50268.03;5122326;27;20049;-69
2022/05/28 02:47:16;;;;;;;2.85;1.10;;;;;;;-149.78;100.00;50244.59;5121766;27;20390;-69
2022/05/28 02:49:41;;;;;;;4.88;1.30;;;;;;;-149.78;100.00;50266.09;5116650;27;20039;-68
2022/05/28 02:52:07;;;;;;;3.97;1.40;;;;;;;-149.78;100.00;50275.88;5097203;27;20035;-68
2022/05/28 02:54:33;;;;;;;4.00;1.00;;;;;;;-149.78;100.00;50236.75;5115475;28;20023;-69
2022/05/28 02:56:59;;;;;;;6.68;1.20;;;;;;;-149.78;100.00;50262.19;5130583;27;20123;-69
2022/05/28 02:59:24;;;;;;;4.93;1.33;;;;;;;-149.78;100.00;50270.00;5114394;27;20130;-69
2022/05/28 03:01:51;;;;;;;6.35;1.20;;;;;;;-149.78;100.00;50232.84;5096900;27;20092;-69
2022/05/28 03:04:17;;;;;;;2.45;1.00;;;;;;;-149.78;100.00;50252.41;5117047;27;20062;-69
2022/05/28 03:06:43;;;;;;;4.20;1.15;;;;;;;-149.78;100.00;50207.44;5133253;27;20031;-69
2022/05/28 03:09:10;;;;;;;4.50;1.15;;;;;;;-149.78;100.00;50244.59;5134862;27;20027;-69
2022/05/28 03:11:37;;;;;;;9.32;1.25;;;;;;;-149.78;100.00;50246.53;5106479;27;20034;-69
2022/05/28 03:14:03;;;;;;;5.97;1.50;;;;;;;-149.78;100.00;50256.31;5112795;27;20144;-69
2022/05/28 03:16:29;;;;;;;4.90;1.42;;;;;;;-149.78;100.00;50236.75;5129227;27;20023;-69
2022/05/28 03:18:55;;;;;;;5.07;1.08;;;;;;;-149.78;100.00;50301.28;5114558;28;20586;-69
2022/05/28 03:21:20;;;;;;;5.38;1.20;;;;;;;-149.78;100.00;50248.50;5133629;27;20023;-69
2022/05/28 03:23:49;;;;;;;9.50;1.27;;;;;;;-149.78;100.00;50254.34;5093997;27;20028;-69
2022/05/28 03:26:21;;;;;;;5.97;1.42;;;;;;;-149.78;100.00;50248.50;5098465;27;20058;-69
2022/05/28 03:28:49;;;;;;;5.43;1.30;;;;;;;-149.78;100.00;50240.66;5112434;27;20026;-69
2022/05/28 03:31:16;;;;;;;4.88;1.50;;;;;;;-149.78;100.00;50205.47;5131889;27;20027;-69
2022/05/28 03:33:42;;;;;;;9.95;1.40;;;;;;;-149.78;100.00;50232.84;5122131;27;20047;-69
2022/05/28 03:36:09;;;;;;;7.28;1.42;;;;;;;-149.78;100.00;50217.19;5101405;28;20032;-69
2022/05/28 03:38:35;;;;;;;4.25;0.95;;;;;;;-149.78;100.00;50256.31;5117137;27;20079;-69
2022/05/28 03:41:01;;;;;;;4.38;1.13;;;;;;;-149.78;100.00;50252.41;5081598;28;20441;-69
2022/05/28 03:43:28;;;;;;;4.43;0.85;;;;;;;-149.78;100.00;50242.63;5108944;27;20027;-70
2022/05/28 03:45:54;;;;;;;4.88;1.10;;;;;;;-149.78;100.00;50262.19;5113166;27;20057;-69
2022/05/28 03:48:20;;;;;;;6.93;1.38;;;;;;;-149.78;100.00;50223.06;5079896;28;20207;-70
2022/05/28 03:50:46;;;;;;;2.92;1.00;;;;;;;-149.78;100.00;50236.75;5113830;28;20016;-69
2022/05/28 03:53:12;;;;;;;4.60;1.30;;;;;;;-149.78;100.00;50223.06;5097223;27;20367;-70
2022/05/28 03:55:39;;;;;;;4.15;1.48;;;;;;;-149.78;100.00;50264.13;5104611;27;20464;-69
2022/05/28 03:58:06;;;;;;;4.55;1.00;;;;;;;-149.78;100.00;50264.13;5099464;27;20112;-69
2022/05/28 04:00:32;;;;;;;3.65;1.17;;;;;;;-149.78;100.00;50244.59;5125374;27;20027;-69
2022/05/28 04:02:58;;;;;;;4.88;1.48;;;;;;;-149.78;100.00;50268.03;5134631;27;20035;-69
2022/05/28 04:05:24;;;;;;;8.13;1.33;;;;;;;-149.78;100.00;50283.69;5112583;27;20042;-69
2022/05/28 04:07:50;;;;;;;3.85;1.20;;;;;;;-149.78;100.00;50213.28;5125993;27;20025;-69
2022/05/28 04:10:16;;;;;;;5.32;1.52;;;;;;;-149.78;100.00;50258.28;5099923;28;20045;-69
2022/05/28 04:12:42;;;;;;;6.07;1.40;;;;;;;-149.78;100.00;50228.94;5114936;27;20024;-69
2022/05/28 04:15:10;;;;;;;7.53;1.13;;;;;;;-149.78;100.00;50228.94;5120948;27;20043;-69
2022/05/28 04:17:37;;;;;;;4.80;1.33;;;;;;;-149.78;100.00;50295.44;5103884;27;20128;-69
2022/05/28 04:20:04;;;;;;;5.45;1.58;;;;;;;-149.78;100.00;50285.66;5105060;27;20037;-69
2022/05/28 04:22:30;;;;;;;7.13;1.50;;;;;;;-149.78;100.00;50244.59;5114975;27;20042;-69
2022/05/28 04:24:56;;;;;;;7.47;1.27;;;;;;;-149.78;100.00;50258.28;5101469;27;20035;-69
2022/05/28 04:27:22;;;;;;;5.32;1.35;;;;;;;-149.78;100.00;50260.22;5132146;27;20107;-69
2022/05/28 04:29:47;;;;;;;5.43;1.17;;;;;;;-149.78;100.00;50268.03;5107985;28;20038;-69
2022/05/28 04:32:14;;;;;;;6.57;1.20;;;;;;;-149.78;100.00;50225.03;5123930;27;20031;-69
2022/05/28 04:34:39;;;;;;;4.38;1.20;;;;;;;-149.78;100.00;50256.31;5096169;28;20027;-69
2022/05/28 04:37:06;;;;;;;2.75;0.90;;;;;;;-149.78;100.00;50264.13;5125544;27;20039;-69
2022/05/28 04:39:31;;;;;;;3.97;1.15;;;;;;;-149.78;100.00;50232.84;5097759;27;20058;-69
2022/05/28 04:41:57;;;;;;;8.82;1.38;;;;;;;-149.78;100.00;50219.16;5117133;27;20085;-69
2022/05/28 04:44:23;;;;;;;6.30;1.10;;;;;;;-149.78;100.00;50225.03;5114116;28;20031;-69
2022/05/28 04:46:48;;;;;;;6.47;1.25;;;;;;;-149.78;100.00;50252.41;5104613;27;20053;-69
2022/05/28 04:49:14;;;;;;;7.32;1.55;;;;;;;-149.78;100.00;50273.91;5131912;27;20489;-69
2022/05/28 04:51:39;;;;;;;6.47;1.33;;;;;;;-149.78;100.00;50244.59;5120604;27;20028;-70
2022/05/28 04:54:05;;;;;;;4.22;1.20;;;;;;;-149.78;100.00;50244.59;5102842;28;20060;-70
2022/05/28 04:56:32;;;;;;;7.47;1.63;;;;;;;-149.78;100.00;50273.91;5102152;28;20550;-69
2022/05/28 04:58:58;;;;;;;3.15;1.30;;;;;;;-149.78;100.00;50281.75;5132510;28;20035;-70
2022/05/28 05:01:49;;;;;;;4.70;1.15;;;;;;;-149.78;100.00;50266.09;5097285;28;20053;-70
2022/05/28 05:04:37;;;;;;;8.57;1.33;;;;;;;-149.78;100.00;50232.84;5098095;28;20055;-70
2022/05/28 05:07:12;;;;;;;4.85;1.58;;;;;;;-149.78;100.00;50230.88;5070937;28;20059;-70
2022/05/28 05:09:56;;;;;;;3.50;1.20;;;;;;;-149.78;100.00;50228.94;5090268;28;20451;-70
2022/05/28 05:12:31;;;;;;;8.68;1.02;;;;;;;-149.78;100.00;50252.41;5074789;28;20127;-70
2022/05/28 05:15:41;;;;;;;4.93;1.30;;;;;;;-149.78;100.00;50260.22;5090300;28;20110;-70
2022/05/28 05:18:22;;;;;;;8.68;1.60;;;;;;;-149.78;100.00;50279.78;5094838;28;20032;-70
2022/05/28 05:21:03;;;;;;;2.05;0.90;;;;;;;-149.78;100.00;50244.59;5098501;28;20089;-70
2022/05/28 05:23:37;;;;;;;3.28;1.02;;;;;;;-149.78;100.00;50244.59;5089451;28;20038;-70
2022/05/28 05:26:39;;;;;;;4.80;1.45;;;;;;;-149.78;100.00;50244.59;5090624;28;20032;-70
2022/05/28 05:29:23;;;;;;;7.35;1.35;;;;;;;-149.78;100.00;50264.13;5109123;28;20115;-70
2022/05/28 05:31:51;;;;;;;3.33;0.80;;;;;;;-149.78;100.00;50262.19;5094092;28;20511;-70
2022/05/28 05:34:42;;;;;;;2.35;1.10;;;;;;;-149.78;100.00;50232.84;5086927;28;20024;-70
2022/05/28 05:38:37;;;;;;;5.20;1.20;;;;;;;-149.78;100.00;50197.66;5064839;28;20043;-70
2022/05/28 05:41:37;;;;;;;5.15;1.15;;;;;;;-149.78;100.00;50246.53;5062599;28;20044;-70
2022/05/28 05:44:08;;;;;;;2.63;1.13;;;;;;;-149.78;100.00;50232.84;5047138;28;20043;-70
2022/05/28 05:46:49;;;;;;;4.60;1.27;;;;;;;-149.78;100.00;50236.75;5055432;28;20059;-70
2022/05/28 05:49:56;;;;;;;7.93;2.08;;;;;;;-149.78;100.00;50197.66;5064555;28;20080;-70
2022/05/28 05:52:29;;;;;;;2.83;1.02;;;;;;;-149.78;100.00;50252.41;5072962;28;20036;-70
2022/05/28 05:55:16;;;;;;;5.50;1.17;;;;;;;-149.78;100.00;50217.19;5074076;28;20119;-70
2022/05/28 05:57:41;;;;;;;4.60;1.13;;;;;;;-149.78;100.00;50211.34;5108138;28;20119;-69
2022/05/28 06:00:07;;;;;;;3.15;0.98;;;;;;;-149.78;100.00;50240.66;5108529;28;20103;-69
2022/05/28 06:02:33;;;;;;;5.80;1.13;;;;;;;-149.78;100.00;50199.59;5104666;28;20531;-69
2022/05/28 06:04:59;;;;;;;2.42;0.88;;;;;;;-149.78;100.00;50211.34;5111099;28;20052;-69
2022/05/28 06:07:26;;;;;;;4.28;1.67;;;;;;;-149.78;100.00;50178.09;5113626;28;20036;-69
2022/05/28 06:09:52;;;;;;;1.88;1.00;;;;;;;-149.78;100.00;50172.22;5112085;28;20417;-69
2022/05/28 06:12:17;;;;;;;3.92;1.00;;;;;;;-149.78;100.00;50232.84;5095083;28;20028;-69
2022/05/28 06:14:43;;;;;;;4.22;1.27;;;;;;;-149.78;100.00;50221.13;5089291;28;20039;-69
2022/05/28 06:17:09;;;;;;;3.85;1.05;;;;;;;-149.78;100.00;50178.09;5107065;28;20036;-69
2022/05/28 06:19:34;;;;;;;3.03;1.63;;;;;;;-149.78;100.00;50217.19;5115169;28;20551;-69
2022/05/28 06:22:01;;;;;;;4.93;1.25;;;;;;;-149.78;100.00;50193.72;5102657;28;20075;-69
2022/05/28 06:24:27;;;;;;;6.25;1.20;;;;;;;-149.78;100.00;50201.56;5109149;28;20035;-69
2022/05/28 06:26:53;;;;;;;1.65;0.85;;;;;;;-149.78;100.00;50205.47;5112098;28;20039;-69
2022/05/28 06:29:19;;;;;;;2.80;1.40;;;;;;;-149.78;100.00;50197.66;5098176;28;20166;-69
2022/05/28 06:31:45;;;;;;;3.13;0.93;;;;;;;-149.78;100.00;50189.81;5111595;28;20475;-69
2022/05/28 06:34:10;;;;;;;3.55;1.05;;;;;;;-149.78;100.00;50178.09;5113312;28;20551;-69
2022/05/28 06:36:36;;;;;;;6.57;1.10;;;;;;;-149.78;100.00;50183.97;5094393;28;20144;-69
2022/05/28 06:39:02;;;;;;;3.10;0.90;;;;;;;-149.78;100.00;50158.53;5106206;28;20475;-69
2022/05/28 06:41:28;;;;;;;1.27;0.85;;;;;;;-149.78;100.00;50170.25;5093276;28;20024;-70
2022/05/28 06:43:53;;;;;;;4.38;1.20;;;;;;;-149.78;100.00;50152.66;5094583;28;20036;-70
2022/05/28 06:46:19;;;;;;;2.90;0.95;;;;;;;-149.78;100.00;50135.06;5090096;28;20479;-70
2022/05/28 06:48:45;;;;;;;1.45;0.90;;;;;;;-149.78;100.00;50095.94;5102387;28;20517;-69
2022/05/28 06:51:11;;;;;;;3.55;1.20;;;;;;;-149.78;100.00;50078.34;5107600;28;20475;-69
2022/05/28 06:53:45;;;;;;;2.65;1.10;;;;;;;-149.78;94.42;50064.66;5106043;28;20097;-69
2022/05/28 06:56:12;;;;;;;6.45;1.00;;;;;;;-149.78;88.76;50078.34;5115633;28;20055;-70
2022/05/28 06:58:39;;;;;;;1.45;1.00;;;;;;;-149.78;72.01;50103.78;5094044;28;20101;-70
2022/05/28 07:01:07;;;;;;;3.55;1.23;;;;;;;-149.78;67.96;50080.31;5092970;28;20040;-70
2022/05/28 07:03:33;;;;;;;3.45;0.88;;;;;;;-149.78;66.03;50056.84;5108507;28;21675;-70
2022/05/28 07:05:59;;;;;;;3.33;1.02;;;;;;;-149.78;61.69;50052.94;5134169;27;20047;-70
2022/05/28 07:08:25;;;;;;;3.38;0.90;;;;;;;-149.78;59.10;50056.84;5120764;27;20035;-70
2022/05/28 07:10:55;;;;;;;3.58;1.27;;;;;;;-149.78;60.14;50084.22;5125693;27;20027;-69
2022/05/28 07:13:22;;;;;;;2.75;1.00;;;;;;;-149.78;61.73;50045.09;5114594;27;20368;-69
2022/05/28 07:15:48;;;;;;;4.95;1.00;;;;;;;-149.78;55.52;50037.28;5093740;28;20031;-69
2022/05/28 07:18:14;;;;;;;2.25;1.08;;;;;;;-149.78;56.30;50060.75;5100579;28;20035;-69
2022/05/28 07:20:41;;;;;;;2.33;1.10;;;;;;;-149.78;55.67;50031.41;5111209;27;20035;-69
2022/05/28 07:23:19;;;;;;;1.58;0.90;;;;;;;-149.78;53.40;50021.63;5085903;27;20046;-70
2022/05/28 07:25:46;;;;;;;2.38;1.20;;;;;;;-149.78;51.17;49980.56;5101307;27;20023;-69
2022/05/28 07:28:25;;;;;;;1.92;1.00;;;;;;;-149.78;48.56;49974.72;5095942;28;20474;-70
2022/05/28 07:31:00;;;;;;;2.28;1.00;;;;;;;-149.78;50.50;50004.03;5112439;28;20075;-69
2022/05/28 07:33:27;;;;;;;2.42;1.05;;;;;;;-149.78;51.68;50041.19;5108441;28;20031;-69
2022/05/28 07:35:54;;;;;;;2.45;1.20;;;;;;;-149.78;51.93;49990.34;5122634;27;20084;-69
2022/05/28 07:38:21;;;;;;;1.67;0.93;;;;;;;-149.78;50.13;49951.25;5133832;27;20084;-70
2022/05/28 07:40:48;;;;;;;2.97;1.23;;;;;;;-149.78;51.50;50029.47;5091086;28;20379;-70
2022/05/28 07:43:13;;;;;;;4.05;0.90;;;;;;;-149.78;54.68;50021.63;5112892;28;20032;-68
2022/05/28 07:45:43;;;;;;;1.77;0.82;;;;;;;-149.78;55.60;50029.47;5094172;28;20061;-69
2022/05/28 07:48:09;;;;;;;2.53;1.00;;;;;;;-149.78;61.40;50037.28;5125576;27;20024;-70
2022/05/28 07:50:35;;;;;;;2.35;0.90;;;;;;;-149.78;63.97;50084.22;5112437;28;20032;-69
2022/05/28 07:53:01;;;;;;;5.15;1.20;;;;;;;-149.78;64.78;50092.03;5093773;28;20042;-69
2022/05/28 07:55:30;;;;;;;2.58;1.10;;;;;;;-149.78;63.67;50072.50;5118688;27;20117;-69
2022/05/28 07:57:55;;;;;;;5.07;1.30;;;;;;;-149.78;61.55;50060.75;5099607;28;20392;-68
2022/05/28 08:00:21;;;;;;;2.83;1.00;;;;;;;-149.78;57.76;50027.50;5095030;28;20043;-69
2022/05/28 08:02:48;;;;;;;3.38;1.33;;;;;;;-149.78;56.47;50072.50;5107931;27;20066;-69
2022/05/28 08:05:14;;;;;;;2.63;1.10;;;;;;;-149.78;58.05;50064.66;5124956;27;20039;-69
2022/05/28 08:07:40;;;;;;;3.78;1.20;;;;;;;-149.78;55.63;50013.81;5112640;28;20028;-69
2022/05/28 08:10:07;;;;;;;3.53;1.13;;;;;;;-149.78;51.74;50009.91;5110986;28;20023;-70
2022/05/28 08:12:32;;;;;;;3.25;1.23;;;;;;;-149.78;52.08;50002.09;5083231;28;20085;-70
2022/05/28 08:14:58;;;;;;;3.42;1.50;;;;;;;-149.78;50.54;50049.03;5127624;27;20035;-70
2022/05/28 08:17:24;;;;;;;3.90;1.10;;;;;;;-149.78;54.53;50041.19;5117851;27;20455;-70
2022/05/28 08:19:51;;;;;;;2.90;1.20;;;;;;;-149.78;59.21;50062.72;5119344;27;20015;-69
2022/05/28 08:25:00;;;;;;;8.32;1.48;;;;;;;-149.78;60.58;50076.41;5113575;28;20042;-69
2022/05/28 08:27:26;;;;;;;4.50;1.58;;;;;;;-149.78;63.50;50115.50;5113773;28;20043;-69
2022/05/28 08:29:52;;;;;;;3.13;1.35;;;;;;;-149.78;63.34;50076.41;5124478;27;20040;-69
2022/05/28 08:32:20;;;;;;;5.82;1.10;;;;;;;-149.78;58.33;50107.69;5114980;27;20455;-69
2022/05/28 08:34:49;;;;;;;1.83;1.20;;;;;;;-149.78;57.80;50052.94;5096602;28;20088;-69
2022/05/28 08:37:14;;;;;;;2.90;1.38;;;;;;;-149.78;56.43;50021.63;5119742;27;20058;-70
2022/05/28 08:39:40;;;;;;;3.83;1.40;;;;;;;-149.78;51.51;49974.72;5118453;27;20110;-70
2022/05/28 08:42:12;;;;;;;3.95;1.25;;;;;;;-149.78;49.74;50029.47;5124453;27;20039;-70
2022/05/28 08:44:40;;;;;;;2.90;1.30;;;;;;;-149.78;53.51;50058.78;5124282;27;20033;-70
2022/05/28 08:47:15;;;;;;;1.92;1.20;;;;;;;-149.78;55.42;50076.41;5120501;27;20795;-70
2022/05/28 08:50:26;;;;;;;2.40;1.45;;;;;;;-149.78;56.41;50078.34;5126373;27;20065;-70
2022/05/28 08:53:18;;;;;;;3.90;1.20;;;;;;;-149.78;58.92;50092.03;5102244;27;20506;-70
2022/05/28 08:55:58;;;;;;;1.67;1.10;;;;;;;-149.78;62.13;50092.03;5125529;27;20028;-69
2022/05/28 08:58:50;;;;;;;3.90;1.30;;;;;;;-149.78;67.58;50111.59;5125509;28;20030;-69
2022/05/28 09:01:24;;;;;;;4.07;1.13;;;;;;;-149.78;63.84;50115.50;5092139;28;20032;-70
2022/05/28 09:04:52;;;;;;;2.17;1.30;;;;;;;-149.78;64.27;50092.03;5117201;28;20511;-69
2022/05/28 09:07:27;;;;;;;2.37;1.20;;;;;;;-149.78;69.75;50129.19;5117373;28;20027;-69
2022/05/28 09:10:21;;;;;;;3.65;1.48;;;;;;;-149.78;72.78;50125.28;5104482;28;20035;-69
2022/05/28 09:13:10;;;;;;;;;;;;;;;-149.78;73.39;50135.06;5121261;27;20047;-69
2022/05/28 09:16:18;;;;;;;2.97;1.20;;;;;;;-149.78;72.86;50170.25;5119277;27;19911;-69
2022/05/28 09:19:22;;;;;;;3.58;1.30;;;;;;;-149.78;72.94;50129.19;5129558;27;20027;-69
2022/05/28 09:22:00;;;;;;;3.60;1.60;;;;;;;-149.78;71.85;50137.03;5101368;27;20034;-69
2022/05/28 09:24:49;;;;;;;4.35;1.58;;;;;;;-149.78;74.34;50174.19;5111954;27;20122;-69
2022/05/28 09:28:13;;;;;;;2.40;1.48;;;;;;;-149.78;73.21;50158.53;5109704;27;20133;-69
2022/05/28 09:34:18;;;;;;;3.28;1.58;;;;;;;-149.78;75.59;50123.34;5060532;28;20043;-69
2022/05/28 09:37:42;;;;;;;5.07;1.88;;;;;;;-149.78;56.54;50049.03;5052072;28;20236;-70
2022/05/28 09:40:38;;;;;;;3.67;1.35;;;;;;;-149.78;56.86;50045.09;5095237;28;20386;-70
2022/05/28 09:43:44;;;;;;;6.00;1.60;;;;;;;-149.78;60.21;50123.34;5093282;28;20047;-69
2022/05/28 09:47:29;;;;;;;5.45;1.70;;;;;;;-149.78;61.24;50103.78;5092709;28;20077;-70
2022/05/28 09:50:06;;;;;;;3.83;1.50;;;;;;;-149.78;64.97;50135.06;5088343;27;20137;-70
2022/05/28 09:54:16;;;;;;;4.40;1.63;;;;;;;-149.78;65.25;50127.25;5123979;27;20040;-70
2022/05/28 09:56:04;;;;;;;2.45;1.60;;;;;;;-149.78;71.79;50099.88;5102941;28;20042;-69
2022/05/28 09:59:28;;;;;;;4.20;1.33;;;;;;;-149.78;62.52;50101.81;5097873;28;20051;-70
2022/05/28 10:02:24;;;;;;;6.78;1.75;;;;;;;-149.78;60.76;50099.88;5079874;27;20035;-70
2022/05/28 10:05:21;;;;;;;5.60;2.35;;;;;;;-149.78;66.86;50111.59;5072993;28;20090;-70
2022/05/28 10:08:19;;;;;;;4.05;1.70;;;;;;;-149.78;58.36;50021.63;5092696;28;20027;-70
2022/05/28 10:11:27;;;;;;;3.95;1.50;;;;;;;-149.78;54.43;50062.72;5100819;28;20506;-70
2022/05/28 10:14:20;;;;;;;2.85;1.50;;;;;;;-149.78;57.00;50080.31;5069731;28;20128;-69
2022/05/28 10:20:27;;;;;;;3.78;1.45;;;;;;;-149.78;60.22;50103.78;5113553;28;20028;-69
2022/05/28 10:23:16;;;;;;;3.55;1.80;;;;;;;-149.78;60.99;50099.88;5091411;28;20052;-69
2022/05/28 10:26:13;;;;;;;2.58;1.50;;;;;;;-149.78;59.59;50107.69;5091178;28;20473;-69
2022/05/28 10:29:14;;;;;;;2.60;1.42;;;;;;;-149.78;58.15;50076.41;5088815;28;20047;-69
2022/05/28 10:31:44;;;;;;;3.63;1.45;;;;;;;-149.78;54.78;50060.75;5110874;28;20035;-69
2022/05/28 10:34:56;;;;;;;3.53;1.50;;;;;;;-149.78;53.99;50056.84;5102946;28;20101;-70
2022/05/28 10:37:34;;;;;;;3.45;1.30;;;;;;;-149.78;52.55;50052.94;5110239;28;20028;-69
2022/05/28 10:40:30;;;;;;;4.95;1.58;;;;;;;-149.78;53.18;50076.41;5101664;28;20433;-70
2022/05/28 10:43:29;;;;;;;3.00;1.40;;;;;;;-149.78;56.82;50084.22;5094097;28;20040;-70
2022/05/28 10:46:48;;;;;;;2.17;1.40;;;;;;;-149.78;55.34;50076.41;5091130;28;20044;-69
2022/05/28 10:49:44;;;;;;;3.83;1.98;;;;;;;-149.78;52.47;50076.41;5064817;28;20154;-70
2022/05/28 10:52:49;;;;;;;5.10;1.58;;;;;;;-149.78;56.37;50088.13;5060221;28;20444;-70
2022/05/28 10:55:48;;;;;;;2.47;1.13;;;;;;;-149.78;56.57;50082.25;5099114;27;20543;-70
2022/05/28 10:58:26;;;;;;;3.70;1.45;;;;;;;-149.78;55.29;50127.25;5090900;28;20062;-70
2022/05/28 11:01:19;;;;;;;2.53;1.20;;;;;;;-149.78;59.21;50123.34;5093223;28;20402;-69
2022/05/28 11:04:03;;;;;;;2.70;1.23;;;;;;;-149.78;60.40;50127.25;5092041;28;20031;-70
2022/05/28 11:06:48;;;;;;;1.77;1.15;;;;;;;-149.78;64.27;50115.50;5092447;28;20032;-69
2022/05/28 11:09:49;;;;;;;3.45;1.67;;;;;;;-149.78;63.58;50105.72;5091534;28;20024;-70
2022/05/28 11:12:34;;;;;;;3.92;1.52;;;;;;;-149.78;62.02;50090.09;5074567;28;20044;-70
2022/05/28 11:15:25;;;;;;;3.17;1.55;;;;;;;-149.78;62.33;50107.69;5110496;28;20052;-69
2022/05/28 11:18:11;;;;;;;6.85;1.63;;;;;;;-149.78;59.88;50099.88;5104831;28;20032;-70
2022/05/28 11:20:50;;;;;;;3.00;1.33;;;;;;;-149.78;58.18;50111.59;5098614;28;20027;-70
2022/05/28 11:23:34;;;;;;;4.88;1.33;;;;;;;-149.78;57.85;50090.09;5104297;28;20207;-70
2022/05/28 11:26:15;;;;;;;2.88;1.50;;;;;;;-149.78;52.90;50031.41;5105755;28;20537;-70
2022/05/28 11:29:02;;;;;;;1.30;0.95;;;;;;;-149.78;49.36;50029.47;5093165;28;20032;-69
2022/05/28 11:31:50;;;;;;;2.22;1.20;;;;;;;-149.78;51.69;50080.31;5109283;28;20027;-69
2022/05/28 11:34:43;;;;;;;2.22;1.20;;;;;;;-149.78;55.64;50072.50;5112175;28;20058;-69
2022/05/28 11:37:12;;;;;;;2.40;1.17;;;;;;;-149.78;50.69;50076.41;5092333;28;20337;-69
2022/05/28 11:39:41;;;;;;;3.28;1.33;;;;;;;-149.78;51.74;50047.06;5093269;28;20066;-69
2022/05/28 11:42:35;;;;;;;3.05;1.48;;;;;;;-149.78;53.23;50090.09;5094002;28;20031;-69
2022/05/28 11:45:05;;;;;;;1.95;1.20;;;;;;;-149.78;55.54;50094.00;5093368;28;20118;-69
2022/05/28 11:47:53;;;;;;;4.03;1.40;;;;;;;-149.78;52.55;50115.50;5106346;28;20031;-69
2022/05/28 11:53:39;;;;;;;2.22;1.20;;;;;;;-149.78;52.20;50064.66;5111284;28;20019;-69
2022/05/28 11:56:15;;;;;;;1.87;1.00;;;;;;;-149.78;51.85;50088.13;5113452;28;20370;-69
2022/05/28 11:58:54;;;;;;;3.30;1.20;;;;;;;-149.78;52.61;50092.03;5097476;28;20051;-69
2022/05/28 12:01:30;;;;;;;3.05;1.27;;;;;;;-149.78;55.53;50068.56;5099657;28;20482;-69